createdAt,value
2022-12-13T00:02:01.924Z,0.60
2022-12-13T00:04:30.117Z,0.60
2022-12-13T00:06:58.221Z,0.40
2022-12-13T00:09:26.209Z,0.70
2022-12-13T00:11:54.969Z,0.70
2022-12-13T00:14:22.993Z,0.50
2022-12-13T00:16:50.978Z,0.40
2022-12-13T00:19:20.002Z,0.40
2022-12-13T00:21:48.174Z,0.50
2022-12-13T00:24:16.659Z,0.50
2022-12-13T00:26:44.609Z,0.50
2022-12-13T00:29:12.928Z,0.40
2022-12-13T00:32:00.700Z,0.20
2022-12-13T00:34:30.452Z,0.60
2022-12-13T00:36:59.442Z,1.10
2022-12-13T00:39:28.648Z,0.60
2022-12-13T00:41:57.749Z,0.30
2022-12-13T00:44:25.813Z,0.30
2022-12-13T00:46:53.766Z,0.40
2022-12-13T00:49:21.745Z,0.60
2022-12-13T00:51:49.895Z,0.50
2022-12-13T00:54:18.252Z,0.50
2022-12-13T00:56:46.273Z,0.50
2022-12-13T00:59:15.992Z,0.80
2022-12-13T01:01:45.007Z,0.20
2022-12-13T01:04:13.791Z,0.30
2022-12-13T01:06:46.301Z,0.50
2022-12-13T01:09:31.153Z,0.20
2022-12-13T01:12:02.533Z,0.70
2022-12-13T01:14:31.283Z,0.40
2022-12-13T01:17:00.179Z,0.20
2022-12-13T01:19:29.088Z,0.50
2022-12-13T01:22:05.091Z,0.30
2022-12-13T01:24:33.716Z,0.30
2022-12-13T01:27:01.584Z,0.40
2022-12-13T01:29:29.523Z,0.50
2022-12-13T01:31:57.455Z,0.50
2022-12-13T01:34:27.720Z,0.50
2022-12-13T01:36:58.360Z,0.70
2022-12-13T01:39:28.457Z,0.40
2022-12-13T01:41:59.934Z,0.40
2022-12-13T01:45:01.570Z,0.30
2022-12-13T01:47:51.861Z,0.30
2022-12-13T01:50:28.232Z,0.50
2022-12-13T01:52:56.913Z,0.60
2022-12-13T01:55:33.385Z,0.50
2022-12-13T01:58:10.123Z,0.50
2022-12-13T02:00:38.107Z,0.30
2022-12-13T02:03:21.093Z,0.50
2022-12-13T02:06:03.212Z,0.50
2022-12-13T02:08:35.502Z,0.10
2022-12-13T02:11:05.129Z,0.50
2022-12-13T02:13:33.000Z,0.30
2022-12-13T02:16:26.902Z,1.00
2022-12-13T02:19:44.097Z,0.50
2022-12-13T02:22:46.018Z,0.50
2022-12-13T02:25:54.302Z,0.30
2022-12-13T02:28:57.599Z,0.30
2022-12-13T02:31:53.297Z,0.10
2022-12-13T02:34:34.632Z,0.40
2022-12-13T02:37:17.977Z,0.50
2022-12-13T02:39:58.837Z,0.30
2022-12-13T02:42:37.472Z,0.40
2022-12-13T02:45:30.103Z,0.40
2022-12-13T02:48:03.953Z,0.10
2022-12-13T02:50:34.118Z,0.50
2022-12-13T02:53:04.847Z,0.30
2022-12-13T02:55:35.981Z,0.40
2022-12-13T02:58:03.990Z,0.50
2022-12-13T03:01:04.560Z,0.70
2022-12-13T03:03:58.823Z,0.60
2022-12-13T03:07:07.187Z,0.40
2022-12-13T03:10:05.924Z,0.90
2022-12-13T03:13:10.083Z,0.80
2022-12-13T03:15:55.593Z,0.60
2022-12-13T03:18:28.446Z,0.70
2022-12-13T03:21:03.646Z,0.20
2022-12-13T03:23:33.141Z,0.40
2022-12-13T03:26:14.037Z,0.70
2022-12-13T03:28:42.226Z,0.60
2022-12-13T03:31:10.472Z,1.20
2022-12-13T03:33:41.851Z,0.60
2022-12-13T03:36:11.626Z,0.40
2022-12-13T03:38:40.937Z,0.30
2022-12-13T03:41:14.025Z,1.10
2022-12-13T03:43:42.252Z,0.70
2022-12-13T03:46:10.616Z,0.90
2022-12-13T03:48:39.421Z,1.30
2022-12-13T03:51:07.785Z,1.00
2022-12-13T03:53:35.683Z,0.90
2022-12-13T03:56:06.391Z,0.80
2022-12-13T03:58:38.102Z,0.90
2022-12-13T04:01:10.064Z,1.00
2022-12-13T04:03:40.030Z,0.90
2022-12-13T04:06:09.357Z,0.80
2022-12-13T04:08:39.673Z,0.70
2022-12-13T04:11:27.998Z,1.10
2022-12-13T04:13:57.868Z,0.80
2022-12-13T04:16:25.808Z,0.60
2022-12-13T04:18:53.683Z,1.30
2022-12-13T04:21:21.560Z,0.70
2022-12-13T04:23:49.572Z,1.00
2022-12-13T04:26:17.449Z,1.20
2022-12-13T04:28:50.869Z,0.70
2022-12-13T04:31:22.348Z,0.90
2022-12-13T04:33:51.703Z,1.00
2022-12-13T04:36:31.805Z,0.80
2022-12-13T04:39:22.208Z,0.40
2022-12-13T04:41:53.364Z,0.60
2022-12-13T04:44:28.718Z,1.00
2022-12-13T04:47:01.004Z,0.60
2022-12-13T04:49:30.977Z,0.70
2022-12-13T04:52:01.550Z,1.20
2022-12-13T04:54:36.549Z,0.50
2022-12-13T04:57:08.496Z,0.90
2022-12-13T04:59:38.115Z,0.70
2022-12-13T05:02:08.328Z,0.90
2022-12-13T05:04:36.491Z,1.40
2022-12-13T05:07:04.560Z,1.10
2022-12-13T05:09:32.562Z,0.80
2022-12-13T05:12:01.253Z,0.80
2022-12-13T05:14:33.350Z,0.90
2022-12-13T05:17:02.539Z,0.80
2022-12-13T05:19:31.741Z,0.50
2022-12-13T05:22:02.014Z,0.90
2022-12-13T05:24:32.790Z,0.70
2022-12-13T05:27:00.648Z,1.60
2022-12-13T05:29:28.943Z,0.80
2022-12-13T05:31:57.024Z,1.40
2022-12-13T05:34:25.344Z,0.80
2022-12-13T05:36:53.608Z,0.90
2022-12-13T05:39:27.807Z,0.70
2022-12-13T05:42:01.945Z,0.90
2022-12-13T05:44:33.109Z,0.60
2022-12-13T05:47:02.438Z,0.90
2022-12-13T05:49:31.540Z,0.80
2022-12-13T05:51:59.721Z,0.40
2022-12-13T05:54:27.712Z,0.70
2022-12-13T05:56:56.069Z,1.00
2022-12-13T05:59:23.900Z,1.60
2022-12-13T06:01:51.949Z,1.00
2022-12-13T06:04:23.006Z,0.60
2022-12-13T06:06:52.790Z,0.90
2022-12-13T06:09:22.010Z,2.90
2022-12-13T06:11:50.455Z,1.60
2022-12-13T06:14:21.787Z,1.40
2022-12-13T06:16:53.863Z,1.00
2022-12-13T06:19:23.616Z,0.70
2022-12-13T06:21:55.248Z,1.10
2022-12-13T06:24:24.041Z,1.10
2022-12-13T06:26:52.122Z,0.80
2022-12-13T06:29:25.511Z,1.00
2022-12-13T06:32:03.130Z,0.50
2022-12-13T06:34:35.826Z,0.60
2022-12-13T06:37:08.340Z,1.00
2022-12-13T06:39:36.305Z,1.20
2022-12-13T06:42:07.470Z,1.40
2022-12-13T06:44:35.667Z,1.20
2022-12-13T06:47:11.314Z,1.80
2022-12-13T06:49:44.205Z,2.10
2022-12-13T06:52:14.691Z,1.30
2022-12-13T06:54:44.156Z,5.30
2022-12-13T06:57:19.555Z,1.70
2022-12-13T06:59:47.970Z,1.10
2022-12-13T07:02:25.276Z,1.60
2022-12-13T07:04:55.465Z,1.00
2022-12-13T07:07:25.322Z,2.00
2022-12-13T07:09:54.360Z,4.40
2022-12-13T07:12:23.570Z,0.80
2022-12-13T07:14:51.441Z,1.80
2022-12-13T07:17:32.969Z,1.00
2022-12-13T07:20:10.387Z,4.50
2022-12-13T07:22:46.614Z,2.00
2022-12-13T07:25:28.254Z,0.80
2022-12-13T07:28:07.239Z,2.30
2022-12-13T07:30:40.528Z,0.70
2022-12-13T07:33:10.534Z,1.70
2022-12-13T07:35:39.251Z,0.70
2022-12-13T07:38:10.335Z,1.30
2022-12-13T07:40:40.651Z,1.00
2022-12-13T07:43:10.379Z,0.90
2022-12-13T07:45:38.311Z,1.00
2022-12-13T07:48:08.735Z,1.10
2022-12-13T07:50:37.895Z,1.30
2022-12-13T07:53:08.424Z,1.20
2022-12-13T07:55:37.411Z,1.30
2022-12-13T07:58:11.984Z,1.40
2022-12-13T08:00:45.791Z,0.70
2022-12-13T08:03:25.447Z,1.40
2022-12-13T08:06:06.134Z,0.60
2022-12-13T08:08:34.792Z,0.90
2022-12-13T08:11:09.187Z,0.60
2022-12-13T08:13:38.928Z,0.90
2022-12-13T08:16:26.021Z,0.80
2022-12-13T08:19:00.977Z,1.50
2022-12-13T08:21:55.672Z,1.30
2022-12-13T08:24:27.342Z,1.30
2022-12-13T08:27:01.615Z,1.20
2022-12-13T08:29:35.320Z,1.00
2022-12-13T08:32:08.591Z,0.90
2022-12-13T08:34:37.507Z,1.10
2022-12-13T08:37:06.020Z,1.90
2022-12-13T08:39:37.700Z,1.50
2022-12-13T08:42:17.078Z,1.20
2022-12-13T08:44:51.844Z,1.20
2022-12-13T08:47:26.050Z,1.50
2022-12-13T08:50:02.595Z,1.70
2022-12-13T08:52:40.322Z,1.10
2022-12-13T08:55:11.765Z,1.50
2022-12-13T08:57:42.027Z,1.70
2022-12-13T09:00:15.578Z,2.00
2022-12-13T09:02:44.131Z,2.00
2022-12-13T09:05:13.303Z,1.30
2022-12-13T09:08:02.967Z,2.90
2022-12-13T09:10:38.219Z,2.20
2022-12-13T09:13:11.522Z,1.70
2022-12-13T09:15:46.062Z,2.00
2022-12-13T09:18:15.383Z,1.10
2022-12-13T09:20:52.172Z,1.40
2022-12-13T09:23:23.888Z,1.50
2022-12-13T09:26:05.228Z,2.50
2022-12-13T09:28:37.552Z,1.60
2022-12-13T09:31:14.910Z,1.70
2022-12-13T09:33:44.527Z,1.10
2022-12-13T09:36:17.253Z,0.80
2022-12-13T09:38:46.486Z,2.30
2022-12-13T09:41:20.503Z,1.50
2022-12-13T09:44:31.062Z,1.20
2022-12-13T09:47:13.558Z,1.70
2022-12-13T09:49:52.350Z,1.60
2022-12-13T09:52:25.773Z,1.80
2022-12-13T09:54:57.514Z,1.60
2022-12-13T09:57:33.043Z,1.30
2022-12-13T10:00:06.999Z,1.60
2022-12-13T10:02:54.281Z,1.00
2022-12-13T10:05:39.523Z,1.00
2022-12-13T10:08:22.535Z,1.60
2022-12-13T10:10:53.270Z,1.10
2022-12-13T10:13:36.694Z,1.30
2022-12-13T10:16:16.130Z,1.30
2022-12-13T10:18:51.874Z,1.80
2022-12-13T10:21:33.535Z,1.30
2022-12-13T10:24:27.231Z,1.00
2022-12-13T10:27:12.625Z,1.60
2022-12-13T10:30:13.294Z,2.60
2022-12-13T10:33:06.592Z,7.50
2022-12-13T10:35:41.052Z,3.50
2022-12-13T10:38:09.004Z,3.20
2022-12-13T10:40:43.300Z,1.80
2022-12-13T10:43:23.361Z,2.20
2022-12-13T10:46:04.088Z,1.30
2022-12-13T10:48:52.000Z,1.10
2022-12-13T10:51:23.113Z,1.70
2022-12-13T10:53:56.645Z,1.20
2022-12-13T10:56:37.566Z,2.80
2022-12-13T10:59:31.237Z,2.00
2022-12-13T11:02:00.426Z,6.70
2022-12-13T11:04:35.132Z,3.30
2022-12-13T11:07:31.726Z,2.90
2022-12-13T11:10:36.439Z,4.50
2022-12-13T11:13:08.128Z,1.30
2022-12-13T11:15:38.935Z,3.20
2022-12-13T11:18:22.505Z,2.00
2022-12-13T11:21:01.850Z,1.20
2022-12-13T11:23:43.550Z,2.10
2022-12-13T11:26:24.391Z,0.90
2022-12-13T11:29:17.697Z,1.40
2022-12-13T11:32:22.431Z,2.00
2022-12-13T11:35:20.806Z,1.10
2022-12-13T11:38:58.530Z,2.90
2022-12-13T11:41:42.437Z,2.20
2022-12-13T11:44:23.612Z,1.30
2022-12-13T11:47:01.029Z,1.90
2022-12-13T11:49:44.058Z,3.00
2022-12-13T11:52:30.234Z,6.50
2022-12-13T11:55:15.075Z,2.30
2022-12-13T11:57:58.487Z,1.70
2022-12-13T12:00:35.806Z,1.10
2022-12-13T12:03:32.346Z,1.30
2022-12-13T12:06:12.607Z,3.10
2022-12-13T12:09:15.496Z,1.10
2022-12-13T12:12:03.704Z,0.90
2022-12-13T12:14:52.836Z,1.20
2022-12-13T12:17:25.451Z,1.80
2022-12-13T12:19:57.632Z,1.40
2022-12-13T12:22:58.074Z,1.30
2022-12-13T12:25:31.525Z,1.40
2022-12-13T12:28:18.475Z,1.00
2022-12-13T12:31:31.566Z,1.10
2022-12-13T12:34:27.682Z,1.30
2022-12-13T12:37:20.678Z,4.60
2022-12-13T12:40:52.580Z,1.60
2022-12-13T12:43:33.068Z,1.20
2022-12-13T12:47:08.563Z,0.70
2022-12-13T12:49:57.586Z,1.40
2022-12-13T12:53:01.147Z,0.80
2022-12-13T12:55:41.873Z,0.60
2022-12-13T12:58:28.186Z,0.80
2022-12-13T13:01:43.877Z,0.90
2022-12-13T13:04:22.225Z,0.70
2022-12-13T13:07:22.283Z,0.80
2022-12-13T13:09:55.336Z,0.30
2022-12-13T13:12:29.637Z,0.80
2022-12-13T13:14:58.864Z,0.80
2022-12-13T13:17:26.661Z,1.10
2022-12-13T13:20:20.554Z,0.90
2022-12-13T13:23:03.846Z,0.60
2022-12-13T13:26:00.229Z,0.70
2022-12-13T13:28:25.984Z,0.60
2022-12-13T13:31:10.956Z,0.70
2022-12-13T13:33:44.124Z,0.50
2022-12-13T13:36:41.776Z,1.10
2022-12-13T13:39:19.583Z,0.90
2022-12-13T13:41:56.771Z,0.80
2022-12-13T13:44:54.668Z,1.20
2022-12-13T13:47:22.456Z,1.30
2022-12-13T13:50:18.769Z,2.40
2022-12-13T13:53:00.828Z,1.50
2022-12-13T13:56:08.509Z,0.80
2022-12-13T13:59:17.303Z,1.40
2022-12-13T14:02:16.879Z,1.20
2022-12-13T14:05:14.176Z,4.10
2022-12-13T14:08:20.600Z,6.20
2022-12-13T14:11:38.165Z,3.20
2022-12-13T14:14:50.085Z,2.20
2022-12-13T14:17:55.786Z,2.70
2022-12-13T14:20:58.006Z,1.40
2022-12-13T14:23:38.173Z,2.70
2022-12-13T14:26:17.833Z,2.10
2022-12-13T14:28:53.239Z,1.90
2022-12-13T14:31:44.806Z,2.80
2022-12-13T14:34:25.654Z,3.20
2022-12-13T14:37:04.067Z,2.60
2022-12-13T14:39:34.908Z,1.60
2022-12-13T14:42:24.985Z,1.10
2022-12-13T14:44:53.603Z,1.70
2022-12-13T14:47:23.436Z,1.50
2022-12-13T14:49:55.629Z,1.80
2022-12-13T14:52:39.988Z,1.70
2022-12-13T14:55:36.591Z,1.60
2022-12-13T14:58:19.443Z,1.50
2022-12-13T15:00:47.469Z,1.60
2022-12-13T15:03:28.447Z,1.20
2022-12-13T15:06:01.322Z,2.00
2022-12-13T15:08:29.866Z,1.60
2022-12-13T15:11:00.283Z,2.10
2022-12-13T15:13:37.783Z,2.00
2022-12-13T15:16:19.863Z,1.30
2022-12-13T15:18:50.538Z,1.10
2022-12-13T15:21:24.712Z,2.10
2022-12-13T15:23:53.827Z,1.10
2022-12-13T15:26:28.683Z,1.40
2022-12-13T15:29:09.454Z,1.50
2022-12-13T15:31:40.869Z,1.50
2022-12-13T15:34:31.055Z,1.80
2022-12-13T15:37:05.727Z,1.50
2022-12-13T15:39:40.922Z,1.40
2022-12-13T15:42:28.479Z,0.90
2022-12-13T15:45:01.851Z,1.20
2022-12-13T15:47:29.969Z,0.60
2022-12-13T15:50:06.466Z,1.00
2022-12-13T15:52:38.790Z,0.90
2022-12-13T15:55:09.459Z,1.20
2022-12-13T15:57:59.023Z,0.80
2022-12-13T16:00:34.755Z,1.80
2022-12-13T16:03:18.835Z,1.20
2022-12-13T16:05:53.473Z,0.70
2022-12-13T16:08:40.822Z,0.90
2022-12-13T16:11:09.187Z,1.70
2022-12-13T16:13:38.787Z,1.10
2022-12-13T16:16:10.046Z,1.10
2022-12-13T16:19:00.376Z,0.80
2022-12-13T16:21:30.195Z,1.40
2022-12-13T16:23:58.120Z,1.10
2022-12-13T16:26:29.003Z,1.20
2022-12-13T16:29:00.526Z,1.70
2022-12-13T16:31:35.726Z,1.60
2022-12-13T16:34:05.445Z,0.90
2022-12-13T16:36:33.455Z,1.40
2022-12-13T16:39:01.376Z,1.80
2022-12-13T16:41:29.440Z,0.80
2022-12-13T16:44:01.836Z,1.70
2022-12-13T16:47:14.732Z,0.90
2022-12-13T16:49:21.438Z,1.80
2022-12-13T16:51:49.553Z,1.20
2022-12-13T16:54:20.763Z,2.00
2022-12-13T16:56:50.571Z,2.20
2022-12-13T16:59:22.756Z,2.30
2022-12-13T17:01:51.877Z,3.10
2022-12-13T17:04:23.298Z,2.40
2022-12-13T17:06:54.832Z,1.30
2022-12-13T17:09:25.374Z,2.70
2022-12-13T17:11:53.446Z,1.80
2022-12-13T17:14:21.405Z,1.90
2022-12-13T17:16:49.431Z,2.40
2022-12-13T17:19:17.779Z,2.80
2022-12-13T17:21:46.057Z,2.80
2022-12-13T17:24:14.067Z,2.90
2022-12-13T17:26:54.464Z,2.60
2022-12-13T17:29:25.157Z,2.60
2022-12-13T17:31:53.560Z,3.20
2022-12-13T17:34:21.749Z,1.60
2022-12-13T17:36:49.754Z,2.60
2022-12-13T17:39:18.181Z,2.30
2022-12-13T17:41:54.437Z,2.70
2022-12-13T17:44:28.159Z,2.50
2022-12-13T17:46:56.342Z,0.90
2022-12-13T17:49:26.153Z,1.30
2022-12-13T17:51:55.188Z,1.20
2022-12-13T17:54:25.643Z,2.50
2022-12-13T17:56:54.637Z,1.40
2022-12-13T17:59:23.455Z,2.30
2022-12-13T18:01:51.620Z,1.60
2022-12-13T18:04:21.335Z,2.60
2022-12-13T18:06:51.769Z,2.30
2022-12-13T18:09:19.694Z,1.60
2022-12-13T18:11:48.142Z,1.10
2022-12-13T18:14:16.236Z,1.00
2022-12-13T18:16:44.483Z,1.60
2022-12-13T18:19:15.113Z,1.20
2022-12-13T18:21:46.129Z,1.70
2022-12-13T18:24:14.040Z,1.50
2022-12-13T18:26:42.037Z,1.60
2022-12-13T18:29:09.916Z,2.40
2022-12-13T18:31:38.007Z,1.40
2022-12-13T18:34:05.996Z,2.10
2022-12-13T18:36:35.218Z,1.40
2022-12-13T18:39:04.505Z,1.70
2022-12-13T18:41:33.214Z,2.50
2022-12-13T18:44:10.745Z,2.30
2022-12-13T18:46:44.732Z,2.90
2022-12-13T18:49:15.110Z,2.60
2022-12-13T18:51:43.078Z,2.70
2022-12-13T18:54:14.565Z,3.10
2022-12-13T18:56:45.518Z,3.00
2022-12-13T18:59:15.483Z,2.80
2022-12-13T19:01:43.887Z,2.40
2022-12-13T19:04:13.352Z,1.80
2022-12-13T19:06:44.710Z,2.00
2022-12-13T19:09:18.061Z,2.10
2022-12-13T19:11:48.894Z,0.50
2022-12-13T19:14:21.060Z,2.10
2022-12-13T19:16:51.965Z,1.40
2022-12-13T19:19:22.996Z,1.30
2022-12-13T19:21:56.763Z,2.60
2022-12-13T19:24:33.848Z,1.60
2022-12-13T19:27:02.496Z,1.80
2022-12-13T19:29:34.304Z,3.10
2022-12-13T19:32:04.667Z,3.10
2022-12-13T19:34:34.002Z,2.30
2022-12-13T19:37:06.285Z,3.30
2022-12-13T19:39:34.875Z,3.00
2022-12-13T19:42:06.190Z,3.30
2022-12-13T19:44:34.215Z,4.00
2022-12-13T19:47:02.296Z,3.90
2022-12-13T19:49:30.560Z,3.90
2022-12-13T19:52:00.570Z,3.70
2022-12-13T19:54:28.632Z,4.10
2022-12-13T19:56:56.680Z,3.80
2022-12-13T19:59:24.556Z,4.10
2022-12-13T20:01:52.817Z,4.10
2022-12-13T20:04:20.917Z,3.00
2022-12-13T20:06:48.889Z,4.30
2022-12-13T20:09:16.872Z,4.10
2022-12-13T20:11:44.859Z,4.10
2022-12-13T20:14:12.986Z,4.70
2022-12-13T20:16:42.033Z,4.10
2022-12-13T20:19:10.413Z,4.30
2022-12-13T20:21:40.534Z,4.60
2022-12-13T20:24:10.324Z,4.80
2022-12-13T20:26:39.207Z,3.50
2022-12-13T20:29:07.367Z,3.90
2022-12-13T20:31:39.079Z,2.80
2022-12-13T20:34:14.398Z,3.10
2022-12-13T20:36:43.448Z,3.30
2022-12-13T20:39:15.006Z,1.60
2022-12-13T20:41:43.116Z,1.20
2022-12-13T20:44:13.848Z,2.40
2022-12-13T20:46:42.156Z,1.40
2022-12-13T20:49:10.918Z,1.40
2022-12-13T20:51:41.904Z,2.50
2022-12-13T20:54:12.693Z,2.70
2022-12-13T20:56:40.736Z,2.10
2022-12-13T20:59:13.706Z,2.30
2022-12-13T21:01:44.856Z,3.10
2022-12-13T21:04:28.464Z,1.00
2022-12-13T21:06:56.820Z,1.60
2022-12-13T21:09:24.857Z,2.10
2022-12-13T21:11:52.893Z,1.40
2022-12-13T21:14:27.556Z,2.20
2022-12-13T21:17:01.860Z,1.60
2022-12-13T21:19:39.313Z,2.70
2022-12-13T21:22:08.464Z,2.70
2022-12-13T21:24:36.384Z,4.20
2022-12-13T21:27:10.498Z,1.60
2022-12-13T21:29:41.158Z,2.90
2022-12-13T21:32:09.148Z,2.60
2022-12-13T21:34:37.338Z,2.60
2022-12-13T21:37:08.583Z,1.90
2022-12-13T21:39:44.903Z,2.00
2022-12-13T21:42:14.046Z,2.90
2022-12-13T21:44:42.230Z,1.30
2022-12-13T21:47:12.361Z,3.30
2022-12-13T21:49:48.776Z,3.60
2022-12-13T21:52:20.233Z,2.20
2022-12-13T21:54:48.369Z,2.20
2022-12-13T21:57:34.994Z,3.80
2022-12-13T22:00:02.990Z,3.70
2022-12-13T22:02:30.918Z,3.10
2022-12-13T22:04:59.148Z,2.30
2022-12-13T22:07:30.938Z,3.80
2022-12-13T22:10:01.711Z,2.40
2022-12-13T22:12:37.627Z,1.80
2022-12-13T22:15:09.988Z,3.40
2022-12-13T22:17:39.273Z,2.60
2022-12-13T22:20:12.023Z,2.30
2022-12-13T22:22:42.148Z,2.20
2022-12-13T22:25:10.701Z,3.20
2022-12-13T22:27:38.659Z,2.80
2022-12-13T22:30:07.693Z,3.70
2022-12-13T22:32:35.532Z,1.50
2022-12-13T22:35:04.936Z,1.70
2022-12-13T22:37:33.483Z,2.70
2022-12-13T22:40:01.404Z,2.50
2022-12-13T22:42:29.248Z,2.90
2022-12-13T22:44:57.099Z,2.60
2022-12-13T22:47:25.003Z,3.30
2022-12-13T22:49:52.909Z,3.50
2022-12-13T22:52:21.154Z,3.10
2022-12-13T22:54:49.073Z,3.10
2022-12-13T22:57:16.897Z,2.70
2022-12-13T22:59:44.927Z,2.40
2022-12-13T23:02:12.977Z,4.10
2022-12-13T23:04:41.282Z,3.40
2022-12-13T23:07:09.097Z,3.70
2022-12-13T23:09:37.036Z,3.00
2022-12-13T23:12:24.128Z,3.40
2022-12-13T23:14:52.032Z,3.50
2022-12-13T23:17:20.097Z,1.60
2022-12-13T23:19:50.310Z,1.60
2022-12-13T23:22:25.156Z,2.90
2022-12-13T23:24:53.602Z,0.90
2022-12-13T23:27:23.581Z,1.90
2022-12-13T23:29:51.715Z,1.10
2022-12-13T23:32:19.648Z,1.50
2022-12-13T23:34:47.589Z,2.60
2022-12-13T23:37:15.472Z,1.80
2022-12-13T23:39:43.458Z,2.80
2022-12-13T23:42:11.263Z,1.00
2022-12-13T23:44:39.168Z,3.10
2022-12-13T23:47:07.057Z,1.10
2022-12-13T23:49:35.109Z,2.50
2022-12-13T23:52:03.156Z,2.10
2022-12-13T23:54:31.013Z,1.10
2022-12-13T23:56:58.914Z,2.20
2022-12-13T23:59:28.115Z,2.70
